createdAt,value
2022-12-12T00:00:43.224Z,39.30
2022-12-12T00:03:31.823Z,39.50
2022-12-12T00:06:05.766Z,38.10
2022-12-12T00:08:38.343Z,39.30
2022-12-12T00:11:10.859Z,38.00
2022-12-12T00:13:44.452Z,36.60
2022-12-12T00:16:18.463Z,37.00
2022-12-12T00:18:51.173Z,34.30
2022-12-12T00:21:25.679Z,34.10
2022-12-12T00:24:01.108Z,36.30
2022-12-12T00:26:35.074Z,33.30
2022-12-12T00:29:07.568Z,34.40
2022-12-12T00:31:40.917Z,34.10
2022-12-12T00:34:15.017Z,32.90
2022-12-12T00:36:49.061Z,32.20
2022-12-12T00:39:23.154Z,36.20
2022-12-12T00:41:56.472Z,33.90
2022-12-12T00:44:29.698Z,34.60
2022-12-12T00:47:04.822Z,34.40
2022-12-12T00:49:41.233Z,32.80
2022-12-12T00:52:17.285Z,32.90
2022-12-12T00:54:49.199Z,32.40
2022-12-12T00:57:21.962Z,32.90
2022-12-12T00:59:53.990Z,35.90
2022-12-12T01:02:28.479Z,34.10
2022-12-12T01:05:01.317Z,36.00
2022-12-12T01:07:34.254Z,35.50
2022-12-12T01:10:07.965Z,39.80
2022-12-12T01:12:40.270Z,36.40
2022-12-12T01:15:15.159Z,37.20
2022-12-12T01:17:47.597Z,37.90
2022-12-12T01:20:23.985Z,38.50
2022-12-12T01:22:56.923Z,39.10
2022-12-12T01:25:29.844Z,40.10
2022-12-12T01:28:02.991Z,39.80
2022-12-12T01:30:39.367Z,41.10
2022-12-12T01:33:12.591Z,40.00
2022-12-12T01:35:48.832Z,41.50
2022-12-12T01:38:21.492Z,42.40
2022-12-12T01:40:57.765Z,43.30
2022-12-12T01:43:31.871Z,41.10
2022-12-12T01:46:35.032Z,41.60
2022-12-12T01:49:13.419Z,40.50
2022-12-12T01:51:48.792Z,39.10
2022-12-12T01:54:24.013Z,39.30
2022-12-12T01:56:58.518Z,37.40
2022-12-12T01:59:31.249Z,38.80
2022-12-12T02:02:03.638Z,39.40
2022-12-12T02:04:36.675Z,39.10
2022-12-12T02:07:09.366Z,40.80
2022-12-12T02:09:43.601Z,41.50
2022-12-12T02:12:17.267Z,42.00
2022-12-12T02:14:51.796Z,43.10
2022-12-12T02:17:51.569Z,42.90
2022-12-12T02:20:51.463Z,45.50
2022-12-12T02:23:56.320Z,45.40
2022-12-12T02:26:53.692Z,46.40
2022-12-12T02:29:56.568Z,44.60
2022-12-12T02:32:39.913Z,47.50
2022-12-12T02:35:20.252Z,48.50
2022-12-12T02:38:00.772Z,47.20
2022-12-12T02:40:38.645Z,47.90
2022-12-12T02:43:14.865Z,48.90
2022-12-12T02:45:49.762Z,48.30
2022-12-12T02:48:28.055Z,48.40
2022-12-12T02:51:04.510Z,48.50
2022-12-12T02:53:38.324Z,47.60
2022-12-12T02:56:46.758Z,48.00
2022-12-12T02:59:24.077Z,49.10
2022-12-12T03:02:09.850Z,48.90
2022-12-12T03:05:09.116Z,50.00
2022-12-12T03:07:51.009Z,49.50
2022-12-12T03:10:32.903Z,48.10
2022-12-12T03:13:12.163Z,47.30
2022-12-12T03:16:00.271Z,47.60
2022-12-12T03:18:38.763Z,49.70
2022-12-12T03:21:16.862Z,49.20
2022-12-12T03:23:51.280Z,50.50
2022-12-12T03:26:27.434Z,52.40
2022-12-12T03:29:05.720Z,52.40
2022-12-12T03:31:41.122Z,52.10
2022-12-12T03:34:17.896Z,50.80
2022-12-12T03:36:52.922Z,50.00
2022-12-12T03:39:31.232Z,49.90
2022-12-12T03:42:11.449Z,54.50
2022-12-12T03:44:47.712Z,53.70
2022-12-12T03:47:23.808Z,52.50
2022-12-12T03:50:03.683Z,54.00
2022-12-12T03:52:39.110Z,52.00
2022-12-12T03:55:16.252Z,51.90
2022-12-12T03:57:53.522Z,50.50
2022-12-12T04:00:29.463Z,50.70
2022-12-12T04:03:07.421Z,53.50
2022-12-12T04:06:05.718Z,49.80
2022-12-12T04:08:38.448Z,56.80
2022-12-12T04:11:40.536Z,56.70
2022-12-12T04:14:21.520Z,58.70
2022-12-12T04:17:01.207Z,54.90
2022-12-12T04:19:58.120Z,52.20
2022-12-12T04:22:54.157Z,48.30
2022-12-12T04:25:32.451Z,50.30
2022-12-12T04:28:08.142Z,49.50
2022-12-12T04:30:43.965Z,47.10
2022-12-12T04:33:18.614Z,49.20
2022-12-12T04:35:53.591Z,49.10
2022-12-12T04:38:28.896Z,49.80
2022-12-12T04:41:04.725Z,49.00
2022-12-12T04:43:39.694Z,46.50
2022-12-12T04:46:17.482Z,48.80
2022-12-12T04:48:55.197Z,47.90
2022-12-12T04:51:29.871Z,49.50
2022-12-12T04:54:06.784Z,49.30
2022-12-12T04:56:39.874Z,49.80
2022-12-12T04:59:14.791Z,51.70
2022-12-12T05:01:53.806Z,48.70
2022-12-12T05:04:31.458Z,50.30
2022-12-12T05:07:10.472Z,50.30
2022-12-12T05:09:43.649Z,51.10
2022-12-12T05:12:17.816Z,52.30
2022-12-12T05:14:51.070Z,52.70
2022-12-12T05:17:29.892Z,50.90
2022-12-12T05:20:04.511Z,51.90
2022-12-12T05:22:37.265Z,51.60
2022-12-12T05:25:11.250Z,53.00
2022-12-12T05:27:44.394Z,53.80
2022-12-12T05:30:20.150Z,52.20
2022-12-12T05:32:52.417Z,52.10
2022-12-12T05:35:26.121Z,50.70
2022-12-12T05:38:02.370Z,53.10
2022-12-12T05:40:36.144Z,51.80
2022-12-12T05:43:11.960Z,49.30
2022-12-12T05:45:44.554Z,51.30
2022-12-12T05:48:22.580Z,50.30
2022-12-12T05:50:58.387Z,51.60
2022-12-12T05:53:42.270Z,48.70
2022-12-12T05:56:16.109Z,49.40
2022-12-12T05:58:49.437Z,51.30
2022-12-12T06:01:21.862Z,49.40
2022-12-12T06:03:56.173Z,49.30
2022-12-12T06:06:31.971Z,50.60
2022-12-12T06:09:05.281Z,51.90
2022-12-12T06:11:39.639Z,53.10
2022-12-12T06:14:11.572Z,52.80
2022-12-12T06:16:45.162Z,50.90
2022-12-12T06:19:17.156Z,51.70
2022-12-12T06:21:51.411Z,50.90
2022-12-12T06:24:25.221Z,51.70
2022-12-12T06:26:57.363Z,52.40
2022-12-12T06:29:34.304Z,53.10
2022-12-12T06:32:09.091Z,54.00
2022-12-12T06:34:43.279Z,54.20
2022-12-12T06:37:17.513Z,52.80
2022-12-12T06:39:50.041Z,53.30
2022-12-12T06:42:22.301Z,53.50
2022-12-12T06:44:56.896Z,53.70
2022-12-12T06:47:29.404Z,52.80
2022-12-12T06:50:03.336Z,53.20
2022-12-12T06:52:39.274Z,55.40
2022-12-12T06:55:14.571Z,52.50
2022-12-12T06:57:47.872Z,54.60
2022-12-12T07:00:22.757Z,54.50
2022-12-12T07:02:55.879Z,54.60
2022-12-12T07:05:30.322Z,54.20
2022-12-12T07:08:05.515Z,51.80
2022-12-12T07:10:41.526Z,55.00
2022-12-12T07:13:15.158Z,54.60
2022-12-12T07:15:48.569Z,54.70
2022-12-12T07:18:24.067Z,52.60
2022-12-12T07:20:58.055Z,51.40
2022-12-12T07:23:32.957Z,50.10
2022-12-12T07:26:11.549Z,50.00
2022-12-12T07:28:43.470Z,49.70
2022-12-12T07:31:19.471Z,50.20
2022-12-12T07:33:55.365Z,50.90
2022-12-12T07:36:27.793Z,52.50
2022-12-12T07:39:00.215Z,51.40
2022-12-12T07:41:36.933Z,51.60
2022-12-12T07:44:10.128Z,52.50
2022-12-12T07:46:43.658Z,53.20
2022-12-12T07:49:16.031Z,53.40
2022-12-12T07:51:50.633Z,54.90
2022-12-12T07:54:23.582Z,56.10
2022-12-12T07:56:55.918Z,58.20
2022-12-12T07:59:28.223Z,59.80
2022-12-12T08:02:00.994Z,58.90
2022-12-12T08:04:33.332Z,59.60
2022-12-12T08:07:08.873Z,60.10
2022-12-12T08:09:43.587Z,61.50
2022-12-12T08:12:15.666Z,65.20
2022-12-12T08:14:48.089Z,64.00
2022-12-12T08:17:20.142Z,64.10
2022-12-12T08:19:53.728Z,64.10
2022-12-12T08:22:30.048Z,61.60
2022-12-12T08:25:03.517Z,61.10
2022-12-12T08:27:39.346Z,60.90
2022-12-12T08:30:14.771Z,62.10
2022-12-12T08:32:48.542Z,62.50
2022-12-12T08:35:21.911Z,62.80
2022-12-12T08:37:54.047Z,64.00
2022-12-12T08:40:28.461Z,65.10
2022-12-12T08:43:03.895Z,64.70
2022-12-12T08:45:35.971Z,66.90
2022-12-12T08:48:09.620Z,66.40
2022-12-12T08:50:44.042Z,69.80
2022-12-12T08:53:18.727Z,65.40
2022-12-12T08:55:53.445Z,75.50
2022-12-12T08:58:26.766Z,76.40
2022-12-12T09:00:59.757Z,71.90
2022-12-12T09:03:35.261Z,69.10
2022-12-12T09:06:08.136Z,66.90
2022-12-12T09:08:41.978Z,65.50
2022-12-12T09:11:15.787Z,64.40
2022-12-12T09:13:48.228Z,62.70
2022-12-12T09:16:26.420Z,60.20
2022-12-12T09:18:59.224Z,58.90
2022-12-12T09:21:31.853Z,58.90
2022-12-12T09:24:04.990Z,60.40
2022-12-12T09:26:39.462Z,63.10
2022-12-12T09:29:14.230Z,59.70
2022-12-12T09:31:46.089Z,64.50
2022-12-12T09:34:18.452Z,57.80
2022-12-12T09:36:50.369Z,60.90
2022-12-12T09:39:22.671Z,58.70
2022-12-12T09:41:55.344Z,73.10
2022-12-12T09:44:29.740Z,59.30
2022-12-12T09:47:06.447Z,68.30
2022-12-12T09:49:44.262Z,67.70
2022-12-12T09:52:19.554Z,67.00
2022-12-12T09:54:52.616Z,68.50
2022-12-12T09:57:32.335Z,60.70
2022-12-12T10:00:10.740Z,66.90
2022-12-12T10:03:10.282Z,62.00
2022-12-12T10:05:47.539Z,64.50
2022-12-12T10:08:25.286Z,67.60
2022-12-12T10:10:59.571Z,63.90
2022-12-12T10:13:32.912Z,65.00
2022-12-12T10:16:10.376Z,65.70
2022-12-12T10:18:45.316Z,66.10
2022-12-12T10:21:21.641Z,64.80
2022-12-12T10:23:57.566Z,65.40
2022-12-12T10:26:32.019Z,59.10
2022-12-12T10:29:12.147Z,58.50
2022-12-12T10:31:52.065Z,60.90
2022-12-12T10:34:41.151Z,65.20
2022-12-12T10:37:39.094Z,60.50
2022-12-12T10:40:23.819Z,60.30
2022-12-12T10:43:00.658Z,59.80
2022-12-12T10:45:46.294Z,60.10
2022-12-12T10:48:19.422Z,65.60
2022-12-12T10:50:56.078Z,60.90
2022-12-12T10:53:28.194Z,63.00
2022-12-12T10:56:04.818Z,60.30
2022-12-12T10:58:43.625Z,57.60
2022-12-12T11:01:38.425Z,58.40
2022-12-12T11:04:17.612Z,61.80
2022-12-12T11:06:51.696Z,58.40
2022-12-12T11:09:26.795Z,57.50
2022-12-12T11:12:04.838Z,60.70
2022-12-12T11:14:41.203Z,59.90
2022-12-12T11:17:25.776Z,57.50
2022-12-12T11:20:04.410Z,60.90
2022-12-12T11:22:39.266Z,60.90
2022-12-12T11:25:29.229Z,58.30
2022-12-12T11:28:06.950Z,57.90
2022-12-12T11:30:45.795Z,58.30
2022-12-12T11:33:23.514Z,58.00
2022-12-12T11:35:59.303Z,56.30
2022-12-12T11:38:39.845Z,54.50
2022-12-12T11:41:14.928Z,57.60
2022-12-12T11:44:01.397Z,59.80
2022-12-12T11:46:34.776Z,60.90
2022-12-12T11:49:11.095Z,59.90
2022-12-12T11:51:44.844Z,58.90
2022-12-12T11:54:21.707Z,58.30
2022-12-12T11:56:59.016Z,64.00
2022-12-12T11:59:41.942Z,64.30
2022-12-12T12:02:42.839Z,59.50
2022-12-12T12:05:24.291Z,58.80
2022-12-12T12:08:10.678Z,62.20
2022-12-12T12:10:57.296Z,64.80
2022-12-12T12:13:46.244Z,64.60
2022-12-12T12:16:25.003Z,66.60
2022-12-12T12:19:07.954Z,63.00
2022-12-12T12:21:49.147Z,60.50
2022-12-12T12:24:39.262Z,60.40
2022-12-12T12:27:20.156Z,65.40
2022-12-12T12:30:10.936Z,58.40
2022-12-12T12:32:55.014Z,59.50
2022-12-12T12:35:31.922Z,65.10
2022-12-12T12:38:15.964Z,59.90
2022-12-12T12:41:01.045Z,56.90
2022-12-12T12:43:43.769Z,59.50
2022-12-12T12:46:21.153Z,54.90
2022-12-12T12:48:55.356Z,58.20
2022-12-12T12:51:36.555Z,58.30
2022-12-12T12:54:14.599Z,54.70
2022-12-12T12:56:50.630Z,55.90
2022-12-12T12:59:29.423Z,54.60
2022-12-12T13:02:07.867Z,52.80
2022-12-12T13:04:45.444Z,49.70
2022-12-12T13:07:22.988Z,55.60
2022-12-12T13:10:01.016Z,57.80
2022-12-12T13:12:39.392Z,54.20
2022-12-12T13:15:18.432Z,53.80
2022-12-12T13:17:57.072Z,55.70
2022-12-12T13:20:30.847Z,56.80
2022-12-12T13:23:20.641Z,58.90
2022-12-12T13:25:57.930Z,55.40
2022-12-12T13:28:35.996Z,58.20
2022-12-12T13:31:22.847Z,56.40
2022-12-12T13:33:57.758Z,51.30
2022-12-12T13:36:33.236Z,50.40
2022-12-12T13:39:09.021Z,53.20
2022-12-12T13:42:01.371Z,48.50
2022-12-12T13:44:42.723Z,47.40
2022-12-12T13:47:56.399Z,49.10
2022-12-12T13:50:29.166Z,48.40
2022-12-12T13:53:21.972Z,49.20
2022-12-12T13:56:34.567Z,48.10
2022-12-12T13:59:32.752Z,50.60
2022-12-12T14:02:19.727Z,46.90
2022-12-12T14:05:10.419Z,51.30
2022-12-12T14:07:50.295Z,50.40
2022-12-12T14:10:27.691Z,47.90
2022-12-12T14:13:01.168Z,52.00
2022-12-12T14:15:35.164Z,51.70
2022-12-12T14:18:09.209Z,50.10
2022-12-12T14:20:47.308Z,45.10
2022-12-12T14:23:30.492Z,48.60
2022-12-12T14:26:04.278Z,43.50
2022-12-12T14:28:39.501Z,44.40
2022-12-12T14:31:17.757Z,49.70
2022-12-12T14:34:05.439Z,56.80
2022-12-12T14:37:03.386Z,49.30
2022-12-12T14:40:05.389Z,50.70
2022-12-12T14:43:15.240Z,74.00
2022-12-12T14:45:41.958Z,54.40
2022-12-12T14:48:17.899Z,51.10
2022-12-12T14:50:57.010Z,53.00
2022-12-12T14:53:35.039Z,58.00
2022-12-12T14:56:11.632Z,52.60
2022-12-12T14:58:46.264Z,50.30
2022-12-12T15:01:31.628Z,49.80
2022-12-12T15:04:09.723Z,52.40
2022-12-12T15:06:44.701Z,61.50
2022-12-12T15:09:27.386Z,75.90
2022-12-12T15:12:13.793Z,72.50
2022-12-12T15:14:58.680Z,63.40
2022-12-12T15:17:33.022Z,65.00
2022-12-12T15:20:11.788Z,63.10
2022-12-12T15:22:54.258Z,73.70
2022-12-12T15:25:28.821Z,69.90
2022-12-12T15:28:01.377Z,60.60
2022-12-12T15:30:37.699Z,61.80
2022-12-12T15:33:17.857Z,62.80
2022-12-12T15:35:59.670Z,68.50
2022-12-12T15:38:39.190Z,72.10
2022-12-12T15:41:13.882Z,75.30
2022-12-12T15:43:47.048Z,73.80
2022-12-12T15:46:21.335Z,70.70
2022-12-12T15:48:55.812Z,70.90
2022-12-12T15:51:33.202Z,71.70
2022-12-12T15:54:07.219Z,76.90
2022-12-12T15:56:40.600Z,73.40
2022-12-12T15:59:25.697Z,69.30
2022-12-12T16:02:00.098Z,70.60
2022-12-12T16:04:35.772Z,71.90
2022-12-12T16:07:25.271Z,75.10
2022-12-12T16:10:22.878Z,87.10
2022-12-12T16:13:07.165Z,67.90
2022-12-12T16:15:41.292Z,72.20
2022-12-12T16:18:21.095Z,76.40
2022-12-12T16:20:55.360Z,69.40
2022-12-12T16:23:31.942Z,67.20
2022-12-12T16:26:07.120Z,74.00
2022-12-12T16:28:42.806Z,78.00
2022-12-12T16:31:19.115Z,69.70
2022-12-12T16:33:53.172Z,75.80
2022-12-12T16:36:27.417Z,68.80
2022-12-12T16:39:03.566Z,60.80
2022-12-12T16:41:37.401Z,58.80
2022-12-12T16:44:13.788Z,54.50
2022-12-12T16:46:49.194Z,55.80
2022-12-12T16:49:23.894Z,62.40
2022-12-12T16:51:58.253Z,60.00
2022-12-12T16:54:31.786Z,61.00
2022-12-12T16:57:06.535Z,59.50
2022-12-12T16:59:40.771Z,53.80
2022-12-12T17:02:21.536Z,49.40
2022-12-12T17:04:54.000Z,62.20
2022-12-12T17:07:28.343Z,62.80
2022-12-12T17:10:02.365Z,51.00
2022-12-12T17:12:34.545Z,48.80
2022-12-12T17:15:08.738Z,49.50
2022-12-12T17:17:44.169Z,53.90
2022-12-12T17:20:17.296Z,44.70
2022-12-12T17:22:50.755Z,43.40
2022-12-12T17:25:25.545Z,37.70
2022-12-12T17:28:01.311Z,40.80
2022-12-12T17:30:34.600Z,44.60
2022-12-12T17:33:20.599Z,38.10
2022-12-12T17:36:02.500Z,44.60
2022-12-12T17:38:36.167Z,49.10
2022-12-12T17:41:09.370Z,41.70
2022-12-12T17:43:42.654Z,62.00
2022-12-12T17:46:19.422Z,44.20
2022-12-12T17:48:53.721Z,44.60
2022-12-12T17:51:26.207Z,37.30
2022-12-12T17:54:00.559Z,38.90
2022-12-12T17:56:37.273Z,43.80
2022-12-12T17:59:12.117Z,37.00
2022-12-12T18:01:47.785Z,33.70
2022-12-12T18:04:24.483Z,37.00
2022-12-12T18:07:02.572Z,36.20
2022-12-12T18:09:36.399Z,35.20
2022-12-12T18:12:10.753Z,39.00
2022-12-12T18:14:44.947Z,34.80
2022-12-12T18:17:17.877Z,35.00
2022-12-12T18:19:54.180Z,32.80
2022-12-12T18:22:26.483Z,31.70
2022-12-12T18:24:58.828Z,33.90
2022-12-12T18:27:32.953Z,40.90
2022-12-12T18:30:06.607Z,39.50
2022-12-12T18:32:41.261Z,34.60
2022-12-12T18:35:14.072Z,40.40
2022-12-12T18:37:49.949Z,41.90
2022-12-12T18:40:24.479Z,41.30
2022-12-12T18:42:57.593Z,36.80
2022-12-12T18:45:29.712Z,38.20
2022-12-12T18:48:03.999Z,35.30
2022-12-12T18:50:37.622Z,35.30
2022-12-12T18:53:09.734Z,35.80
2022-12-12T18:55:46.254Z,48.70
2022-12-12T18:58:20.195Z,37.90
2022-12-12T19:00:52.267Z,34.80
2022-12-12T19:03:25.143Z,29.10
2022-12-12T19:05:59.081Z,34.00
2022-12-12T19:08:32.519Z,29.60
2022-12-12T19:11:09.400Z,39.90
2022-12-12T19:13:47.062Z,35.00
2022-12-12T19:16:21.095Z,38.60
2022-12-12T19:18:54.391Z,37.00
2022-12-12T19:21:29.817Z,35.40
2022-12-12T19:24:04.871Z,36.40
2022-12-12T19:26:38.358Z,25.00
2022-12-12T19:29:13.816Z,27.40
2022-12-12T19:31:55.374Z,25.30
2022-12-12T19:34:32.734Z,26.40
2022-12-12T19:37:05.453Z,27.70
2022-12-12T19:39:37.818Z,25.70
2022-12-12T19:42:09.652Z,31.00
2022-12-12T19:44:43.511Z,27.20
2022-12-12T19:47:18.582Z,27.00
2022-12-12T19:49:51.830Z,31.90
2022-12-12T19:52:27.787Z,30.40
2022-12-12T19:55:00.133Z,31.00
2022-12-12T19:57:34.245Z,28.40
2022-12-12T20:00:11.656Z,24.80
2022-12-12T20:02:46.599Z,28.50
2022-12-12T20:05:22.251Z,29.50
2022-12-12T20:07:58.075Z,31.10
2022-12-12T20:10:30.111Z,24.70
2022-12-12T20:13:02.914Z,27.50
2022-12-12T20:15:40.253Z,30.30
2022-12-12T20:18:16.588Z,25.70
2022-12-12T20:20:52.282Z,27.10
2022-12-12T20:23:25.562Z,30.80
2022-12-12T20:25:58.711Z,31.80
2022-12-12T20:28:31.592Z,31.20
2022-12-12T20:31:13.661Z,27.90
2022-12-12T20:33:47.551Z,30.50
2022-12-12T20:36:24.370Z,35.30
2022-12-12T20:38:59.022Z,35.90
2022-12-12T20:41:36.340Z,31.20
2022-12-12T20:44:11.756Z,35.30
2022-12-12T20:46:47.484Z,33.30
2022-12-12T20:49:24.180Z,33.70
2022-12-12T20:51:59.026Z,25.00
2022-12-12T20:54:32.297Z,37.60
2022-12-12T20:57:05.301Z,37.30
2022-12-12T20:59:37.188Z,28.30
2022-12-12T21:02:10.236Z,32.40
2022-12-12T21:04:43.180Z,28.90
2022-12-12T21:07:16.176Z,30.20
2022-12-12T21:09:50.469Z,32.40
2022-12-12T21:12:22.731Z,34.30
2022-12-12T21:15:02.531Z,32.00
2022-12-12T21:17:37.039Z,31.40
2022-12-12T21:20:12.858Z,33.80
2022-12-12T21:22:45.712Z,30.50
2022-12-12T21:25:20.157Z,28.00
2022-12-12T21:27:55.849Z,27.00
2022-12-12T21:30:30.995Z,25.60
2022-12-12T21:33:05.482Z,25.80
2022-12-12T21:35:39.982Z,25.20
2022-12-12T21:38:13.037Z,25.70
2022-12-12T21:40:46.847Z,25.70
2022-12-12T21:43:21.163Z,26.40
2022-12-12T21:45:55.662Z,24.80
2022-12-12T21:48:31.947Z,25.40
2022-12-12T21:51:06.866Z,22.90
2022-12-12T21:53:39.034Z,26.80
2022-12-12T21:56:13.242Z,23.90
2022-12-12T21:58:50.313Z,24.70
2022-12-12T22:01:24.193Z,24.90
2022-12-12T22:03:57.076Z,26.00
2022-12-12T22:06:32.347Z,24.50
2022-12-12T22:09:08.284Z,26.60
2022-12-12T22:11:49.889Z,27.50
2022-12-12T22:14:26.279Z,30.50
2022-12-12T22:16:59.958Z,32.20
2022-12-12T22:19:32.298Z,30.60
2022-12-12T22:22:06.243Z,29.40
2022-12-12T22:24:39.879Z,27.70
2022-12-12T22:27:12.956Z,29.20
2022-12-12T22:29:49.131Z,28.90
2022-12-12T22:32:22.071Z,25.80
2022-12-12T22:34:58.219Z,23.40
2022-12-12T22:37:33.001Z,29.50
2022-12-12T22:40:16.841Z,23.40
2022-12-12T22:42:50.399Z,25.00
2022-12-12T22:45:23.585Z,27.30
2022-12-12T22:47:57.120Z,29.30
2022-12-12T22:50:30.415Z,26.30
2022-12-12T22:53:03.205Z,24.20
2022-12-12T22:55:39.566Z,23.10
2022-12-12T22:58:12.692Z,23.90
2022-12-12T23:00:46.376Z,21.20
2022-12-12T23:03:22.233Z,22.70
2022-12-12T23:05:58.463Z,26.00
2022-12-12T23:08:31.110Z,28.00
2022-12-12T23:11:12.681Z,28.40
2022-12-12T23:13:49.809Z,24.80
2022-12-12T23:16:27.585Z,28.10
2022-12-12T23:19:01.095Z,30.00
2022-12-12T23:21:38.440Z,24.50
2022-12-12T23:24:12.058Z,23.80
2022-12-12T23:26:45.967Z,27.50
2022-12-12T23:29:20.362Z,27.80
2022-12-12T23:31:53.896Z,29.00
2022-12-12T23:34:26.955Z,28.60
2022-12-12T23:36:59.982Z,26.10
2022-12-12T23:39:33.084Z,27.10
2022-12-12T23:42:06.628Z,23.40
2022-12-12T23:44:39.972Z,22.90
2022-12-12T23:47:13.913Z,22.70
2022-12-12T23:49:47.101Z,21.30
2022-12-12T23:52:19.482Z,23.80
2022-12-12T23:54:53.419Z,24.10
2022-12-12T23:57:27.236Z,22.60
